Time;durP1;ratioP1;P1;durP2;ratioP2;P2;SDS_P1;SDS_P2;PMS_P1;PMS_P2;Temp;Humidity;BMP_temperature;BMP_pressure;BME280_temperature;BME280_humidity;BME280_pressure;Samples;Min_cycle;Max_cycle;Signal;HPM_P1;HPM_P2
2023/12/29 00:01:54;;;;;;;47.85;28.38;;;;;;;3.24;100.00;99386.03;4899425;29;20096;-87
2023/12/29 00:04:20;;;;;;;40.60;28.38;;;;;;;3.26;100.00;99392.00;4900658;29;20032;-87
2023/12/29 00:06:45;;;;;;;40.67;26.55;;;;;;;2.95;100.00;99345.47;4899370;29;20033;-87
2023/12/29 00:09:10;;;;;;;43.60;30.40;;;;;;;3.23;100.00;99392.06;4899081;29;20035;-87
2023/12/29 00:11:36;;;;;;;53.80;33.15;;;;;;;3.06;100.00;99368.41;4899401;29;20051;-87
2023/12/29 00:14:01;;;;;;;40.50;26.95;;;;;;;3.07;100.00;99372.66;4898997;29;20063;-87
2023/12/29 00:16:30;;;;;;;35.42;23.10;;;;;;;3.18;100.00;99376.72;4898883;29;20063;-87
2023/12/29 00:18:55;;;;;;;34.20;22.17;;;;;;;3.19;100.00;99369.84;4899400;29;20474;-87
2023/12/29 00:21:21;;;;;;;40.25;25.90;;;;;;;3.02;100.00;99336.75;4882910;29;20037;-86
2023/12/29 00:23:46;;;;;;;43.13;26.08;;;;;;;2.74;100.00;99295.34;4883232;29;20474;-87
2023/12/29 00:26:12;;;;;;;41.13;24.92;;;;;;;3.27;100.00;99374.84;4898715;29;20047;-87
2023/12/29 00:28:40;;;;;;;41.70;26.20;;;;;;;3.32;100.00;99381.56;4898998;29;20470;-87
2023/12/29 00:31:06;;;;;;;35.75;22.63;;;;;;;3.29;100.00;99368.78;4898527;29;20128;-87
2023/12/29 00:33:31;;;;;;;32.55;21.80;;;;;;;3.04;100.00;99326.44;4882915;29;20379;-87
2023/12/29 00:35:57;;;;;;;34.85;22.38;;;;;;;3.25;100.00;99360.28;4898705;29;20083;-87
2023/12/29 00:38:23;;;;;;;33.97;22.10;;;;;;;3.25;100.00;99362.00;4898482;29;20048;-87
2023/12/29 00:40:48;;;;;;;31.27;19.95;;;;;;;3.21;100.00;99360.38;4898732;29;20060;-87
2023/12/29 00:43:14;;;;;;;28.30;19.67;;;;;;;3.21;100.00;99358.66;4898475;29;20033;-87
2023/12/29 00:45:39;;;;;;;27.10;18.15;;;;;;;3.22;100.00;99357.75;4882881;29;20032;-87
2023/12/29 00:48:05;;;;;;;29.42;17.40;;;;;;;3.17;100.00;99353.59;4898477;29;20032;-87
2023/12/29 00:50:30;;;;;;;28.20;19.20;;;;;;;3.16;100.00;99360.47;4898581;29;20530;-87
2023/12/29 00:52:55;;;;;;;26.58;17.42;;;;;;;3.10;100.00;99350.31;4898367;29;20036;-87
2023/12/29 00:55:21;;;;;;;28.25;17.85;;;;;;;3.15;100.00;99357.91;4882667;29;20025;-87
2023/12/29 00:57:46;;;;;;;28.85;16.90;;;;;;;2.99;100.00;99327.38;4898178;29;20033;-87
2023/12/29 01:00:13;;;;;;;29.90;17.80;;;;;;;3.24;100.00;99350.00;4898471;29;20032;-87
2023/12/29 01:02:39;;;;;;;27.40;17.55;;;;;;;3.23;100.00;99353.47;4882948;29;20037;-88
2023/12/29 01:05:05;;;;;;;27.30;17.40;;;;;;;3.16;100.00;99346.75;4882513;29;20073;-87
2023/12/29 01:07:30;;;;;;;25.65;16.77;;;;;;;3.21;100.00;99353.50;4899063;29;20032;-87
2023/12/29 01:09:56;;;;;;;28.98;17.58;;;;;;;3.18;100.00;99332.97;4898047;29;20031;-87
2023/12/29 01:12:21;;;;;;;31.05;19.25;;;;;;;2.93;100.00;99290.63;4897970;29;20036;-87
2023/12/29 01:14:46;;;;;;;33.75;20.95;;;;;;;3.14;100.00;99326.19;4897779;29;20423;-88
2023/12/29 01:17:12;;;;;;;41.47;23.40;;;;;;;3.19;100.00;99346.69;4897982;29;20037;-87
2023/12/29 01:19:37;;;;;;;38.05;23.08;;;;;;;3.08;100.00;99320.34;4898555;29;20060;-87
2023/12/29 01:22:03;;;;;;;32.67;21.42;;;;;;;3.04;100.00;99306.69;4897674;29;20032;-87
2023/12/29 01:24:28;;;;;;;30.05;19.02;;;;;;;3.05;100.00;99322.97;4897688;29;20471;-87
2023/12/29 01:26:53;;;;;;;33.88;21.50;;;;;;;3.04;100.00;99319.56;4897669;29;20036;-87
2023/12/29 01:29:19;;;;;;;37.10;23.05;;;;;;;3.09;100.00;99327.19;4896037;29;20451;-87
2023/12/29 01:31:44;;;;;;;39.17;23.88;;;;;;;3.07;100.00;99323.78;4880102;29;20555;-87
2023/12/29 01:34:09;;;;;;;37.63;24.08;;;;;;;2.88;100.00;99289.91;4880161;29;20388;-87
2023/12/29 01:36:35;;;;;;;36.42;23.00;;;;;;;3.04;100.00;99321.28;4877139;29;20080;-87
2023/12/29 01:39:02;;;;;;;31.75;22.85;;;;;;;3.04;100.00;99324.72;4877246;29;20061;-87
2023/12/29 01:41:27;;;;;;;33.92;23.50;;;;;;;2.94;100.00;99308.59;4877115;29;20037;-87
2023/12/29 01:44:01;;;;;;;30.75;20.98;;;;;;;2.96;100.00;99304.28;4877351;29;20136;-87
2023/12/29 01:46:33;;;;;;;28.17;20.27;;;;;;;3.13;100.00;99321.09;4877436;29;20150;-87
2023/12/29 01:48:58;;;;;;;;;;;;;;;3.19;100.00;99338.97;4877765;29;20100;-87
2023/12/29 01:51:26;;;;;;;36.40;23.58;;;;;;;2.93;100.00;99293.22;4878238;29;19916;-88
2023/12/29 01:53:54;;;;;;;36.15;22.92;;;;;;;3.16;100.00;99329.59;4877669;29;20057;-87
2023/12/29 01:56:20;;;;;;;34.83;21.67;;;;;;;3.14;100.00;99330.50;4877423;29;20467;-86
2023/12/29 01:58:48;;;;;;;35.20;22.13;;;;;;;3.00;100.00;99300.78;4877360;29;20069;-87
2023/12/29 02:01:14;;;;;;;30.90;20.90;;;;;;;3.06;100.00;99312.66;4877242;29;20041;-87
2023/12/29 02:03:40;;;;;;;35.65;22.13;;;;;;;3.07;100.00;99311.75;4876829;29;20053;-87
2023/12/29 02:06:08;;;;;;;34.78;22.33;;;;;;;3.01;100.00;99314.47;4861376;29;20075;-87
2023/12/29 02:08:33;;;;;;;43.50;26.17;;;;;;;3.01;100.00;99301.63;4861265;29;20071;-87
2023/12/29 02:10:59;;;;;;;33.20;22.55;;;;;;;2.94;100.00;99287.19;4877028;29;20037;-87
2023/12/29 02:13:24;;;;;;;40.35;24.83;;;;;;;2.95;100.00;99297.47;4866286;29;20068;-87
2023/12/29 02:15:54;;;;;;;42.70;26.83;;;;;;;2.84;100.00;99276.25;4896984;29;20033;-87
2023/12/29 02:18:21;;;;;;;38.08;25.23;;;;;;;2.83;100.00;99274.56;4897755;29;20467;-87
2023/12/29 02:20:47;;;;;;;40.17;25.38;;;;;;;2.94;100.00;99298.31;4896812;29;20029;-87
2023/12/29 02:23:12;;;;;;;37.90;24.42;;;;;;;3.00;100.00;99305.91;4897252;29;20037;-87
2023/12/29 02:25:37;;;;;;;34.65;23.10;;;;;;;2.99;100.00;99304.22;4896755;29;20549;-86
2023/12/29 02:28:16;;;;;;;33.45;22.60;;;;;;;2.94;100.00;99295.75;4896694;29;20028;-87
2023/12/29 02:30:49;;;;;;;33.60;21.65;;;;;;;3.02;100.00;99315.31;4896437;29;20036;-87
2023/12/29 02:33:22;;;;;;;33.90;21.70;;;;;;;3.00;100.00;99300.78;4898198;29;20111;-87
2023/12/29 02:35:51;;;;;;;33.80;22.45;;;;;;;2.96;100.00;99290.59;4896750;29;20028;-87
2023/12/29 02:38:17;;;;;;;32.83;24.13;;;;;;;2.98;100.00;99287.06;4896379;29;20103;-87
2023/12/29 02:40:43;;;;;;;34.30;22.33;;;;;;;2.71;100.00;99231.09;4896541;29;20119;-87
2023/12/29 02:43:09;;;;;;;29.40;20.65;;;;;;;3.02;100.00;99266.44;4896486;29;20029;-86
2023/12/29 02:45:34;;;;;;;29.63;19.90;;;;;;;3.07;100.00;99256.88;4896260;29;20035;-87
2023/12/29 02:47:59;;;;;;;31.90;20.23;;;;;;;3.15;100.00;99262.72;4896438;29;20028;-87
2023/12/29 02:50:25;;;;;;;28.90;19.35;;;;;;;3.12;100.00;99245.63;4896333;29;20036;-87
2023/12/29 02:52:50;;;;;;;31.98;20.80;;;;;;;2.97;100.00;99215.94;4880733;29;20032;-87
2023/12/29 02:55:15;;;;;;;32.03;21.15;;;;;;;3.10;100.00;99246.53;4880922;29;20021;-87
2023/12/29 02:57:41;;;;;;;33.92;22.70;;;;;;;3.10;100.00;99236.25;4896536;29;20124;-87
2023/12/29 03:00:06;;;;;;;34.03;23.73;;;;;;;3.05;100.00;99230.38;4881184;29;20641;-87
2023/12/29 03:02:32;;;;;;;31.08;21.67;;;;;;;3.14;100.00;99249.00;4880646;29;20032;-87
2023/12/29 03:04:58;;;;;;;31.77;22.05;;;;;;;3.03;100.00;99227.81;4897577;29;20533;-87
2023/12/29 03:07:23;;;;;;;27.40;21.98;;;;;;;2.91;100.00;99210.94;4896278;29;20037;-87
2023/12/29 03:09:49;;;;;;;32.95;23.63;;;;;;;2.96;100.00;99227.13;4899047;29;20032;-87
2023/12/29 03:12:14;;;;;;;29.40;21.48;;;;;;;2.89;100.00;99229.84;4899592;29;20088;-87
2023/12/29 03:14:39;;;;;;;33.85;21.05;;;;;;;2.97;100.00;99235.69;4899064;29;20028;-87
2023/12/29 03:17:05;;;;;;;27.55;20.35;;;;;;;2.94;100.00;99226.28;4894754;29;20044;-87
2023/12/29 03:19:30;;;;;;;28.15;20.65;;;;;;;2.92;100.00;99222.06;4894743;29;20120;-87
2023/12/29 03:21:55;;;;;;;27.38;18.60;;;;;;;3.00;100.00;99222.75;4894867;29;20488;-87
2023/12/29 03:24:21;;;;;;;27.02;19.27;;;;;;;3.08;100.00;99227.72;4895063;29;20429;-87
2023/12/29 03:26:46;;;;;;;27.83;19.80;;;;;;;2.95;100.00;99228.00;4894395;29;20459;-87
2023/12/29 03:29:12;;;;;;;27.17;17.88;;;;;;;2.98;100.00;99238.19;4879431;29;20078;-87
2023/12/29 03:31:37;;;;;;;26.95;18.13;;;;;;;2.95;100.00;99237.41;4894585;29;20064;-87
2023/12/29 03:34:02;;;;;;;28.95;19.08;;;;;;;2.92;100.00;99232.38;4894803;29;20485;-86
2023/12/29 03:36:28;;;;;;;33.00;20.48;;;;;;;2.96;100.00;99249.41;4894695;29;20421;-87
2023/12/29 03:38:53;;;;;;;32.55;20.00;;;;;;;2.87;100.00;99235.03;4894672;29;20483;-87
2023/12/29 03:41:19;;;;;;;32.20;20.05;;;;;;;2.67;100.00;99196.06;4894751;29;20033;-87
2023/12/29 03:43:44;;;;;;;29.05;18.98;;;;;;;2.93;100.00;99222.03;4894618;29;20071;-87
2023/12/29 03:46:20;;;;;;;37.50;22.38;;;;;;;2.83;100.00;99212.84;4894909;29;20482;-87
2023/12/29 03:48:46;;;;;;;45.90;25.02;;;;;;;2.59;100.00;99178.22;4898384;29;20068;-87
2023/12/29 03:51:12;;;;;;;48.10;26.23;;;;;;;2.47;100.00;99160.47;4899318;29;20032;-87
2023/12/29 03:53:37;;;;;;;54.67;28.23;;;;;;;2.81;100.00;99211.16;4899000;29;20550;-87
2023/12/29 03:56:12;;;;;;;36.22;23.02;;;;;;;2.83;100.00;99222.28;4917921;29;20557;-87
2023/12/29 03:58:37;;;;;;;39.80;24.77;;;;;;;2.66;100.00;99187.50;4902363;29;20506;-87
2023/12/29 04:01:03;;;;;;;36.55;25.15;;;;;;;2.64;100.00;99178.13;4917954;29;20056;-87
2023/12/29 04:03:29;;;;;;;32.80;22.33;;;;;;;2.92;100.00;99212.63;4916415;29;20048;-87
2023/12/29 04:05:54;;;;;;;26.13;17.98;;;;;;;2.92;100.00;99211.78;4900881;29;20072;-87
2023/12/29 04:08:19;;;;;;;29.33;21.02;;;;;;;2.97;100.00;99213.38;4917171;29;20044;-87
2023/12/29 04:10:45;;;;;;;24.95;20.13;;;;;;;2.75;100.00;99165.88;4900784;29;20035;-87
2023/12/29 04:13:10;;;;;;;30.95;21.90;;;;;;;2.96;100.00;99177.41;4901166;29;20075;-87
2023/12/29 04:15:35;;;;;;;25.55;18.15;;;;;;;3.00;100.00;99187.56;4900772;29;20039;-87
2023/12/29 04:18:01;;;;;;;24.88;17.95;;;;;;;3.04;100.00;99183.22;4900961;29;20172;-87
2023/12/29 04:20:26;;;;;;;39.30;26.50;;;;;;;2.91;100.00;99164.66;4900904;29;20024;-86
2023/12/29 04:22:52;;;;;;;33.88;22.40;;;;;;;2.82;100.00;99133.97;4901278;29;20048;-87
2023/12/29 04:25:18;;;;;;;36.25;22.92;;;;;;;3.05;100.00;99161.72;4917304;29;20055;-87
2023/12/29 04:27:43;;;;;;;28.40;20.42;;;;;;;2.99;100.00;99146.44;4901258;29;20036;-87
2023/12/29 04:30:09;;;;;;;34.72;24.17;;;;;;;3.18;100.00;99172.56;4901418;29;20099;-87
2023/12/29 04:32:34;;;;;;;45.35;28.55;;;;;;;3.14;100.00;99163.25;4917284;29;20379;-87
2023/12/29 04:34:59;;;;;;;34.42;24.10;;;;;;;3.12;100.00;99152.13;4901579;29;20127;-87
2023/12/29 04:37:25;;;;;;;34.67;23.80;;;;;;;3.18;100.00;99159.72;4901735;29;20063;-87
2023/12/29 04:39:50;;;;;;;30.52;21.00;;;;;;;3.22;100.00;99158.75;4901704;29;20075;-87
2023/12/29 04:42:17;;;;;;;28.98;19.73;;;;;;;3.22;100.00;99157.03;4902571;29;20028;-87
2023/12/29 04:44:43;;;;;;;31.15;22.60;;;;;;;3.35;100.00;99167.00;4902639;29;20051;-87
2023/12/29 04:47:08;;;;;;;27.15;20.13;;;;;;;3.20;100.00;99145.06;4909061;29;20032;-87
2023/12/29 04:49:34;;;;;;;23.95;18.30;;;;;;;3.29;100.00;99155.16;4914611;29;20052;-87
2023/12/29 04:51:59;;;;;;;25.50;17.27;;;;;;;3.25;100.00;99153.53;4913799;29;20028;-87
2023/12/29 04:54:25;;;;;;;22.60;16.85;;;;;;;3.13;100.00;99128.94;4927058;29;20036;-88
2023/12/29 04:56:50;;;;;;;23.73;16.65;;;;;;;3.30;100.00;99164.56;4901894;29;20180;-87
2023/12/29 04:59:16;;;;;;;20.95;14.13;;;;;;;3.12;100.00;99123.81;4901563;29;20514;-87
2023/12/29 05:01:41;;;;;;;20.45;13.30;;;;;;;3.37;100.00;99160.97;4901022;29;20024;-87
2023/12/29 05:04:07;;;;;;;22.85;14.15;;;;;;;3.29;100.00;99139.72;4901312;29;20043;-87
2023/12/29 05:06:32;;;;;;;19.00;13.70;;;;;;;3.31;100.00;99143.06;4900132;29;20482;-87
2023/12/29 05:08:57;;;;;;;17.17;12.52;;;;;;;3.36;100.00;99148.94;4900558;29;20081;-87
2023/12/29 05:11:23;;;;;;;16.65;11.80;;;;;;;3.39;100.00;99155.75;4901182;29;20052;-87
2023/12/29 05:13:48;;;;;;;19.80;12.07;;;;;;;3.22;100.00;99120.16;4900758;29;20591;-87
2023/12/29 05:16:13;;;;;;;20.27;13.63;;;;;;;3.27;100.00;99150.91;4916816;29;20035;-87
2023/12/29 05:18:39;;;;;;;20.08;14.82;;;;;;;3.36;100.00;99158.41;4900911;29;20039;-86
2023/12/29 05:21:04;;;;;;;17.40;13.27;;;;;;;3.29;100.00;99157.72;4916945;29;20024;-87
2023/12/29 05:23:29;;;;;;;18.42;13.52;;;;;;;3.30;100.00;99159.41;4900907;29;20042;-87
2023/12/29 05:25:55;;;;;;;18.08;12.07;;;;;;;3.34;100.00;99173.91;4917687;29;20032;-87
2023/12/29 05:28:20;;;;;;;16.65;11.93;;;;;;;3.21;100.00;99144.22;4901346;29;20036;-87
2023/12/29 05:30:45;;;;;;;17.38;12.50;;;;;;;3.27;100.00;99154.34;4900820;29;20382;-87
2023/12/29 05:33:11;;;;;;;18.33;12.57;;;;;;;3.31;100.00;99170.56;4916553;29;20363;-87
2023/12/29 05:35:36;;;;;;;16.15;11.63;;;;;;;3.25;100.00;99156.94;4900808;29;20489;-87
2023/12/29 05:38:01;;;;;;;17.48;13.18;;;;;;;3.29;100.00;99154.28;4901083;29;20052;-87
2023/12/29 05:40:28;;;;;;;16.77;13.07;;;;;;;3.24;100.00;99152.69;4916487;29;20072;-87
2023/12/29 05:42:53;;;;;;;19.40;14.07;;;;;;;3.25;100.00;99148.41;4900678;29;20522;-87
2023/12/29 05:45:19;;;;;;;17.63;13.02;;;;;;;3.24;100.00;99133.81;4900756;29;20032;-87
2023/12/29 05:47:44;;;;;;;18.65;13.40;;;;;;;3.28;100.00;99139.72;4917611;29;20111;-87
2023/12/29 05:50:09;;;;;;;20.48;14.70;;;;;;;3.33;100.00;99148.19;4900695;29;20028;-87
2023/12/29 05:52:35;;;;;;;18.65;13.82;;;;;;;3.28;100.00;99135.44;4900363;29;20131;-87
2023/12/29 05:55:00;;;;;;;18.40;14.07;;;;;;;3.37;100.00;99144.63;4917411;29;20082;-86
2023/12/29 05:57:26;;;;;;;19.20;13.18;;;;;;;3.24;100.00;99132.13;4900156;29;20095;-86
2023/12/29 05:59:52;;;;;;;16.30;12.70;;;;;;;3.23;100.00;99129.56;4899949;29;20070;-87
2023/12/29 06:02:17;;;;;;;16.40;12.93;;;;;;;3.15;100.00;99118.59;4900362;29;20126;-87
2023/12/29 06:04:42;;;;;;;15.63;12.32;;;;;;;2.85;100.00;99072.19;4899832;29;20441;-87
2023/12/29 06:07:08;;;;;;;15.07;11.93;;;;;;;2.87;100.00;99069.59;4900054;29;20035;-87
2023/12/29 06:09:33;;;;;;;15.63;11.82;;;;;;;3.13;100.00;99123.81;4899874;29;20032;-87
2023/12/29 06:11:58;;;;;;;16.02;10.90;;;;;;;3.11;100.00;99112.69;4899994;29;20036;-86
2023/12/29 06:14:24;;;;;;;15.20;11.55;;;;;;;3.10;100.00;99113.56;4899861;29;20063;-86
2023/12/29 06:16:49;;;;;;;15.10;12.30;;;;;;;3.09;100.00;99109.31;4899781;29;20122;-86
2023/12/29 06:19:15;;;;;;;20.05;13.38;;;;;;;3.11;100.00;99111.84;4916785;29;20374;-87
2023/12/29 06:21:43;;;;;;;18.02;13.57;;;;;;;3.12;100.00;99108.38;4915375;29;20462;-87
2023/12/29 06:24:09;;;;;;;16.73;13.90;;;;;;;3.20;100.00;99125.34;4916827;29;20169;-87
2023/12/29 06:26:35;;;;;;;18.83;13.32;;;;;;;3.21;100.00;99121.03;4899582;29;20052;-87
2023/12/29 06:29:00;;;;;;;23.80;16.80;;;;;;;3.20;100.00;99121.91;4899926;29;20024;-87
2023/12/29 06:31:26;;;;;;;34.63;23.00;;;;;;;3.10;100.00;99098.13;4899648;29;20039;-87
2023/12/29 06:33:51;;;;;;;43.45;26.58;;;;;;;3.22;100.00;99120.16;4899367;29;20028;-87
2023/12/29 06:36:17;;;;;;;40.95;24.85;;;;;;;3.24;100.00;99126.09;4899807;29;20060;-86
2023/12/29 06:38:45;;;;;;;39.22;24.63;;;;;;;3.38;100.00;99125.75;4916375;29;20056;-87
2023/12/29 06:41:11;;;;;;;41.17;26.45;;;;;;;3.41;100.00;99133.38;4899539;29;20084;-87
2023/12/29 06:43:37;;;;;;;38.50;25.17;;;;;;;3.16;100.00;99091.97;4899501;29;20411;-87
2023/12/29 06:46:04;;;;;;;36.85;24.40;;;;;;;3.46;100.00;99134.13;4884323;29;20056;-87
2023/12/29 06:48:29;;;;;;;42.83;27.98;;;;;;;3.28;100.00;99090.84;4899365;29;20024;-87
2023/12/29 06:50:55;;;;;;;45.35;28.25;;;;;;;3.54;100.00;99133.91;4915702;29;20099;-87
2023/12/29 06:53:20;;;;;;;47.08;30.05;;;;;;;3.53;100.00;99121.94;4899302;29;20032;-87
2023/12/29 06:55:46;;;;;;;66.80;35.67;;;;;;;3.64;100.00;99133.63;4898961;29;20394;-87
2023/12/29 06:58:11;;;;;;;69.13;35.60;;;;;;;3.45;100.00;99102.38;4899198;29;20036;-86
2023/12/29 07:00:36;;;;;;;70.43;33.88;;;;;;;3.53;100.00;99114.19;4914621;29;20032;-87
2023/12/29 07:03:02;;;;;;;74.80;34.38;;;;;;;3.69;100.00;99138.66;4915876;29;20036;-87
2023/12/29 07:05:27;;;;;;;61.83;28.33;;;;;;;3.71;100.00;99131.75;4916508;29;20033;-88
2023/12/29 07:07:53;;;;;;;63.60;29.77;;;;;;;3.74;100.00;99131.66;4898783;29;20474;-87
2023/12/29 07:10:18;;;;;;;57.13;28.67;;;;;;;3.87;100.00;99145.03;4916123;29;20075;-87
2023/12/29 07:12:44;;;;;;;46.58;25.65;;;;;;;3.90;100.00;99144.97;4898798;29;20064;-87
2023/12/29 07:15:09;;;;;;;45.75;27.98;;;;;;;3.94;100.00;99149.16;4914783;29;20394;-87
2023/12/29 07:17:35;;;;;;;38.58;27.33;;;;;;;3.87;100.00;99135.56;4899193;29;20024;-87
2023/12/29 07:20:00;;;;;;;50.70;35.33;;;;;;;3.85;100.00;99127.06;4898781;29;20470;-87
2023/12/29 07:22:26;;;;;;;57.92;37.65;;;;;;;4.02;100.00;99142.06;4914797;29;20080;-87
2023/12/29 07:24:51;;;;;;;63.08;38.58;;;;;;;4.00;100.00;99138.66;4898761;29;20078;-87
2023/12/29 07:27:16;;;;;;;59.00;39.70;;;;;;;3.95;100.00;99123.31;4899037;29;20024;-86
2023/12/29 07:29:42;;;;;;;53.65;36.63;;;;;;;4.04;100.00;99127.38;4898766;29;20032;-87
2023/12/29 07:32:07;;;;;;;68.40;42.85;;;;;;;4.09;100.00;99122.09;4902498;29;20039;-87
2023/12/29 07:34:33;;;;;;;94.60;50.20;;;;;;;4.03;100.00;99102.50;4897842;29;20084;-87
2023/12/29 07:36:59;;;;;;;79.97;44.15;;;;;;;4.22;100.00;99119.13;4882199;29;20056;-87
2023/12/29 07:39:24;;;;;;;60.90;39.47;;;;;;;4.21;100.00;99114.00;4882198;29;20140;-86
2023/12/29 07:41:50;;;;;;;52.08;34.85;;;;;;;4.29;100.00;99114.63;4882049;29;20088;-87
2023/12/29 07:44:17;;;;;;;43.30;29.80;;;;;;;4.11;100.00;99084.25;4882122;29;20041;-87
2023/12/29 07:46:42;;;;;;;30.77;21.63;;;;;;;4.38;100.00;99128.97;4881987;29;20492;-87
2023/12/29 07:49:08;;;;;;;27.52;20.25;;;;;;;4.36;100.00;99107.56;4882191;29;20079;-87
2023/12/29 07:51:34;;;;;;;25.92;19.75;;;;;;;4.39;100.00;99116.06;4882109;29;20029;-87
2023/12/29 07:53:59;;;;;;;28.48;22.27;;;;;;;4.41;100.00;99114.25;4881852;29;20079;-87
2023/12/29 07:56:25;;;;;;;34.55;25.00;;;;;;;4.15;100.00;99072.97;4898006;29;20131;-87
2023/12/29 07:58:50;;;;;;;31.60;22.83;;;;;;;4.39;100.00;99102.31;4897602;29;20041;-87
2023/12/29 08:01:15;;;;;;;34.90;21.90;;;;;;;4.54;100.00;99114.72;4881916;29;20489;-87
2023/12/29 08:03:41;;;;;;;31.73;21.48;;;;;;;4.49;100.00;99108.88;4881612;29;20040;-87
2023/12/29 08:06:06;;;;;;;26.45;17.77;;;;;;;4.59;100.00;99106.84;4882469;29;20068;-85
2023/12/29 08:08:31;;;;;;;21.30;15.18;;;;;;;4.44;100.00;99075.50;4882119;29;20453;-84
2023/12/29 08:10:57;;;;;;;20.05;13.82;;;;;;;4.63;100.00;99100.69;4898698;29;20044;-84
2023/12/29 08:13:22;;;;;;;20.40;13.40;;;;;;;4.48;100.00;99066.78;4901624;29;20062;-84
2023/12/29 08:15:47;;;;;;;18.20;12.82;;;;;;;4.75;100.00;99113.22;4919032;29;20119;-84
2023/12/29 08:18:13;;;;;;;21.35;13.70;;;;;;;4.50;100.00;99058.97;4919024;29;20061;-83
2023/12/29 08:20:38;;;;;;;30.73;15.95;;;;;;;4.86;100.00;99123.22;4919448;29;20028;-84
2023/12/29 08:23:03;;;;;;;55.42;23.55;;;;;;;4.80;100.00;99098.44;4918877;29;20150;-84
2023/12/29 08:25:29;;;;;;;79.10;36.45;;;;;;;4.72;100.00;99083.22;4918822;29;20499;-84
2023/12/29 08:27:56;;;;;;;76.65;32.20;;;;;;;4.84;100.00;99087.13;4901285;29;20031;-85
2023/12/29 08:30:21;;;;;;;66.07;26.98;;;;;;;5.05;100.00;99110.53;4918931;29;20051;-84
2023/12/29 08:32:47;;;;;;;71.63;25.88;;;;;;;5.10;100.00;99108.66;4917307;29;20028;-85
2023/12/29 08:35:12;;;;;;;48.55;21.13;;;;;;;5.09;100.00;99110.41;4902030;29;20352;-85
2023/12/29 08:37:38;;;;;;;38.40;19.10;;;;;;;5.05;100.00;99089.91;4918789;29;20490;-85
2023/12/29 08:40:07;;;;;;;24.40;15.57;;;;;;;5.14;100.00;99089.59;4902032;29;20474;-84
2023/12/29 08:42:32;;;;;;;21.75;12.90;;;;;;;5.19;100.00;99100.63;4918256;29;20132;-84
2023/12/29 08:44:59;;;;;;;24.13;12.55;;;;;;;5.28;100.00;99102.06;4919140;29;20064;-84
2023/12/29 08:47:24;;;;;;;20.27;12.35;;;;;;;5.31;100.00;99107.09;4918984;29;20123;-84
2023/12/29 08:49:51;;;;;;;16.83;11.20;;;;;;;5.34;100.00;99110.41;4918431;29;20051;-84
2023/12/29 08:52:16;;;;;;;17.85;10.93;;;;;;;5.17;100.00;99076.59;4918831;29;20040;-84
2023/12/29 08:54:41;;;;;;;13.82;9.15;;;;;;;5.45;100.00;99120.41;4901436;29;20036;-84
2023/12/29 08:57:07;;;;;;;16.13;11.13;;;;;;;5.27;100.00;99083.16;4917837;29;20547;-84
2023/12/29 08:59:33;;;;;;;17.08;12.25;;;;;;;5.11;100.00;99058.75;4918414;29;20413;-85
2023/12/29 09:01:58;;;;;;;17.17;12.30;;;;;;;5.63;100.00;99137.00;4916838;29;20133;-84
2023/12/29 09:04:23;;;;;;;14.60;12.18;;;;;;;5.59;100.00;99136.25;4918260;29;20034;-85
2023/12/29 09:06:49;;;;;;;16.45;11.45;;;;;;;5.48;100.00;99113.41;4917879;29;20028;-84
2023/12/29 09:09:14;;;;;;;14.07;11.35;;;;;;;5.59;100.00;99123.34;4918150;29;20060;-84
2023/12/29 09:11:41;;;;;;;15.90;10.05;;;;;;;5.51;100.00;99105.50;4918449;29;20117;-85
2023/12/29 09:14:06;;;;;;;15.60;10.38;;;;;;;5.70;100.00;99138.47;4917394;29;20028;-84
2023/12/29 09:16:32;;;;;;;23.52;17.50;;;;;;;5.81;100.00;99151.00;4901086;29;20088;-84
2023/12/29 09:18:57;;;;;;;23.50;18.42;;;;;;;5.70;100.00;99120.41;4901132;29;20027;-84
2023/12/29 09:21:22;;;;;;;16.45;12.63;;;;;;;5.72;100.00;99116.00;4901139;29;20032;-85
2023/12/29 09:23:48;;;;;;;15.23;11.32;;;;;;;5.85;100.00;99131.91;4900858;29;20168;-84
2023/12/29 09:26:13;;;;;;;11.15;8.05;;;;;;;5.82;100.00;99113.94;4900962;29;20079;-84
2023/12/29 09:28:44;;;;;;;10.63;7.93;;;;;;;6.06;100.00;99153.59;4900583;29;20024;-84
2023/12/29 09:31:09;;;;;;;15.30;13.30;;;;;;;5.83;100.00;99097.53;4917513;29;20042;-84
2023/12/29 09:33:36;;;;;;;12.90;10.20;;;;;;;6.13;100.00;99142.97;4917729;29;20111;-84
2023/12/29 09:36:02;;;;;;;11.88;8.65;;;;;;;5.98;100.00;99118.56;4917735;29;20020;-84
2023/12/29 09:38:28;;;;;;;7.78;6.50;;;;;;;6.02;100.00;99127.00;4901931;29;20056;-84
2023/12/29 09:40:58;;;;;;;10.32;8.35;;;;;;;6.27;100.00;99146.81;4917255;29;20028;-83
2023/12/29 09:43:25;;;;;;;9.18;6.78;;;;;;;6.32;100.00;99147.47;4917455;29;20032;-84
2023/12/29 09:45:52;;;;;;;11.27;8.07;;;;;;;6.22;100.00;99124.53;4918210;29;20060;-84
2023/12/29 09:48:19;;;;;;;23.33;15.85;;;;;;;6.33;100.00;99126.75;4917361;29;20092;-83
2023/12/29 09:50:46;;;;;;;18.65;13.25;;;;;;;6.20;100.00;99094.47;4917185;29;20103;-83
2023/12/29 09:53:12;;;;;;;19.05;12.93;;;;;;;6.53;100.00;99130.28;4916191;29;20063;-83
2023/12/29 09:55:40;;;;;;;15.63;11.30;;;;;;;6.53;100.00;99130.28;4900132;29;20088;-83
2023/12/29 09:58:07;;;;;;;18.75;13.80;;;;;;;6.49;100.00;99114.91;4899957;29;20359;-83
2023/12/29 10:00:33;;;;;;;17.30;13.15;;;;;;;6.57;100.00;99114.59;4900232;29;20543;-83
2023/12/29 10:03:00;;;;;;;12.45;8.68;;;;;;;6.53;100.00;99101.84;4916695;29;20052;-83
2023/12/29 10:05:25;;;;;;;11.65;8.32;;;;;;;6.64;100.00;99120.38;4917164;29;20032;-83
2023/12/29 10:07:52;;;;;;;12.82;10.27;;;;;;;6.52;100.00;99088.06;4899269;29;20044;-83
2023/12/29 10:10:19;;;;;;;16.48;12.98;;;;;;;6.70;100.00;99114.94;4899924;29;20039;-83
2023/12/29 10:12:48;;;;;;;15.48;10.52;;;;;;;6.71;100.00;99111.47;4899728;29;20095;-83
2023/12/29 10:15:43;;;;;;;15.40;10.65;;;;;;;6.86;100.00;99125.53;4916567;29;20032;-83
2023/12/29 10:18:18;;;;;;;14.75;11.20;;;;;;;6.90;100.00;99121.94;4839105;29;20046;-83
2023/12/29 10:21:09;;;;;;;9.65;8.23;;;;;;;6.76;100.00;99104.38;4839646;29;20033;-83
2023/12/29 10:23:43;;;;;;;9.15;6.90;;;;;;;6.96;100.00;99124.28;4839582;29;20038;-83
2023/12/29 10:26:11;;;;;;;9.27;6.75;;;;;;;6.89;100.00;99110.75;4821091;29;20053;-83
2023/12/29 10:28:37;;;;;;;9.30;6.72;;;;;;;6.94;100.00;99105.38;4821110;29;20057;-83
2023/12/29 10:31:05;;;;;;;16.45;9.57;;;;;;;7.09;100.00;99130.66;4810682;29;20043;-84
2023/12/29 10:33:32;;;;;;;11.68;8.68;;;;;;;7.12;100.00;99117.59;4804352;29;20042;-89
2023/12/29 10:36:03;;;;;;;13.32;10.57;;;;;;;7.24;100.00;99127.41;4803053;29;20579;-88
2023/12/29 10:38:29;;;;;;;14.15;8.63;;;;;;;7.35;100.00;99127.00;4817173;29;20059;-89
2023/12/29 10:41:16;;;;;;;19.10;12.35;;;;;;;7.30;100.00;99100.44;4802678;29;20049;-87
2023/12/29 10:43:43;;;;;;;16.63;12.00;;;;;;;7.54;100.00;99132.22;4802473;29;20043;-86
2023/12/29 10:46:10;;;;;;;14.32;11.18;;;;;;;7.60;100.00;99134.56;4787516;29;20039;-86
2023/12/29 10:48:37;;;;;;;16.00;10.77;;;;;;;7.63;100.00;99125.84;4787780;29;20047;-86
2023/12/29 10:51:18;;;;;;;14.95;9.27;;;;;;;7.69;100.00;99125.56;4802976;29;20046;-87
2023/12/29 10:53:55;;;;;;;19.90;12.23;;;;;;;7.70;100.00;99117.69;4779085;29;20038;-83
2023/12/29 10:56:20;;;;;;;14.40;10.00;;;;;;;7.85;100.00;99129.16;4845839;29;20132;-88
2023/12/29 10:59:02;;;;;;;21.23;14.13;;;;;;;7.89;100.00;99124.69;4877264;29;20116;-88
2023/12/29 11:01:37;;;;;;;16.83;12.25;;;;;;;7.78;100.00;99100.97;4862121;29;20177;-86
2023/12/29 11:04:05;;;;;;;18.50;12.43;;;;;;;7.85;100.00;99102.41;4866171;29;20048;-87
2023/12/29 11:06:41;;;;;;;14.27;10.05;;;;;;;7.91;100.00;99113.31;4874560;29;20460;-89
2023/12/29 11:09:07;;;;;;;17.15;12.43;;;;;;;7.87;100.00;99106.59;4881098;29;20041;-86
2023/12/29 11:11:36;;;;;;;15.93;12.02;;;;;;;7.88;100.00;99104.84;4879005;29;20041;-87
2023/12/29 11:14:02;;;;;;;14.98;11.68;;;;;;;7.57;100.00;99058.69;4870812;29;20507;-87
2023/12/29 11:16:31;;;;;;;26.77;18.10;;;;;;;7.65;100.00;99079.94;4864653;29;20037;-86